Time;durP1;ratioP1;P1;durP2;ratioP2;P2;SDS_P1;SDS_P2;PMS_P1;PMS_P2;Temp;Humidity;BMP_temperature;BMP_pressure;BME280_temperature;BME280_humidity;BME280_pressure;Samples;Min_cycle;Max_cycle;Signal;HPM_P1;HPM_P2
2023/01/19 00:01:40;;;;;;;28.87;13.40;;;1.10;1.00;;;;;;6186785;23;20172;-91
2023/01/19 00:04:07;;;;;;;28.93;14.37;;;1.00;1.00;;;;;;6186241;23;20253;-90
2023/01/19 00:06:35;;;;;;;35.87;16.60;;;0.90;1.00;;;;;;6185944;23;20190;-91
2023/01/19 00:09:02;;;;;;;49.50;24.63;;;0.80;1.00;;;;;;6186055;23;20645;-90
2023/01/19 00:11:29;;;;;;;46.27;22.03;;;0.70;1.00;;;;;;6186991;23;20175;-91
2023/01/19 00:13:56;;;;;;;45.10;23.13;;;0.60;1.00;;;;;;6185908;23;20257;-89
2023/01/19 00:16:23;;;;;;;42.70;19.13;;;0.50;1.00;;;;;;6186206;23;20166;-91
2023/01/19 00:18:51;;;;;;;41.03;20.60;;;0.40;1.00;;;;;;6186568;23;20176;-91
2023/01/19 00:21:18;;;;;;;38.13;16.93;;;0.30;1.00;;;;;;6186387;23;20171;-91
2023/01/19 00:23:47;;;;;;;36.40;16.40;;;0.20;1.00;;;;;;6186711;23;20263;-91
2023/01/19 00:26:15;;;;;;;32.50;14.43;;;0.10;1.00;;;;;;6186013;23;20187;-91
2023/01/19 00:28:42;;;;;;;44.63;15.00;;;0.00;1.00;;;;;;6186379;23;20171;-91
2023/01/19 00:31:09;;;;;;;64.73;17.63;;;-0.10;1.00;;;;;;6186564;23;20175;-89
2023/01/19 00:33:36;;;;;;;121.07;34.80;;;-0.20;99.90;;;;;;6186764;23;20159;-91
2023/01/19 00:36:03;;;;;;;136.37;30.20;;;-0.20;99.90;;;;;;6186291;23;20680;-91
2023/01/19 00:38:30;;;;;;;80.17;20.43;;;-0.20;99.90;;;;;;6186463;23;20176;-91
2023/01/19 00:40:58;;;;;;;65.00;18.97;;;-0.20;1.00;;;;;;6186635;23;20169;-91
2023/01/19 00:43:25;;;;;;;106.03;23.97;;;0.00;99.90;;;;;;6186769;23;20177;-91
2023/01/19 00:45:52;;;;;;;70.93;19.97;;;0.10;99.90;;;;;;6186448;23;20194;-90
2023/01/19 00:48:19;;;;;;;99.40;16.57;;;0.20;1.00;;;;;;6186227;23;20197;-91
2023/01/19 00:50:45;;;;;;;48.03;16.00;;;0.30;99.90;;;;;;6186218;23;20175;-91
2023/01/19 00:53:12;;;;;;;96.70;15.87;;;0.30;99.90;;;;;;6186444;23;20177;-91
2023/01/19 00:55:39;;;;;;;47.63;16.03;;;0.40;99.90;;;;;;6186505;23;20172;-91
2023/01/19 00:58:07;;;;;;;72.53;16.50;;;0.40;99.90;;;;;;6186428;23;20174;-90
2023/01/19 01:00:34;;;;;;;110.63;17.90;;;0.50;99.90;;;;;;6186018;23;20182;-90
2023/01/19 01:03:01;;;;;;;115.80;16.57;;;0.60;99.90;;;;;;6186593;23;20178;-91
2023/01/19 01:05:28;;;;;;;177.57;19.10;;;0.60;99.90;;;;;;6185966;23;20648;-90
2023/01/19 01:07:54;;;;;;;185.33;17.87;;;0.60;15.30;;;;;;6186505;23;20172;-91
2023/01/19 01:10:23;;;;;;;169.40;18.13;;;0.60;4.80;;;;;;6185889;23;20176;-91
2023/01/19 01:12:50;;;;;;;189.90;15.03;;;0.60;12.80;;;;;;6185704;23;20184;-91
2023/01/19 01:15:19;;;;;;;175.63;12.87;;;0.70;15.10;;;;;;6186477;23;20178;-91
2023/01/19 01:17:51;;;;;;;129.90;10.43;;;0.60;1.00;;;;;;6185946;23;20179;-91
2023/01/19 01:20:20;;;;;;;125.33;9.33;;;0.60;1.00;;;;;;6186355;23;20212;-91
2023/01/19 01:22:50;;;;;;;74.03;9.03;;;0.60;1.00;;;;;;6186290;23;20509;-91
2023/01/19 01:25:19;;;;;;;103.90;9.23;;;0.60;1.00;;;;;;6186281;23;20176;-92
2023/01/19 01:27:46;;;;;;;82.03;8.93;;;0.50;22.80;;;;;;6185645;23;20182;-92
2023/01/19 01:30:14;;;;;;;69.63;9.73;;;0.50;61.00;;;;;;6186911;23;20179;-91
2023/01/19 01:32:42;;;;;;;88.43;10.87;;;0.50;99.90;;;;;;6187520;23;20196;-91
2023/01/19 01:35:10;;;;;;;101.50;11.57;;;0.50;99.90;;;;;;6188247;23;20502;-91
2023/01/19 01:37:37;;;;;;;68.83;12.37;;;0.60;99.90;;;;;;6188089;23;20173;-91
2023/01/19 01:40:05;;;;;;;70.20;13.23;;;0.60;99.90;;;;;;6187770;23;20614;-92
2023/01/19 01:42:34;;;;;;;77.10;15.50;;;0.60;99.90;;;;;;6187998;23;20169;-91
2023/01/19 01:45:05;;;;;;;87.80;17.23;;;0.70;99.90;;;;;;6188504;23;20604;-91
2023/01/19 01:47:36;;;;;;;53.57;12.43;;;0.70;99.90;;;;;;6187475;23;20543;-91
2023/01/19 01:50:10;;;;;;;49.43;11.30;;;0.80;99.90;;;;;;6188200;23;20154;-91
2023/01/19 01:52:43;;;;;;;43.53;10.30;;;0.80;99.90;;;;;;6188137;23;20161;-91
2023/01/19 01:55:12;;;;;;;58.63;10.53;;;0.80;89.20;;;;;;6188330;23;20156;-91
2023/01/19 01:57:44;;;;;;;39.63;9.83;;;0.80;79.00;;;;;;6187681;23;20182;-90
2023/01/19 02:00:13;;;;;;;35.93;9.23;;;0.90;99.10;;;;;;6188032;23;20162;-90
2023/01/19 02:02:52;;;;;;;36.47;10.43;;;0.90;99.90;;;;;;6187527;23;20170;-91
2023/01/19 02:05:24;;;;;;;33.40;10.97;;;0.90;99.90;;;;;;6187960;23;20159;-91
2023/01/19 02:13:26;;;;;;;33.67;10.40;;;1.20;1.00;;;;;;6187501;23;20159;-90
2023/01/19 02:15:56;;;;;;;38.10;11.07;;;1.20;1.00;;;;;;6187679;23;20175;-91
2023/01/19 02:18:26;;;;;;;39.80;11.50;;;1.20;1.00;;;;;;6188069;23;20618;-91
2023/01/19 02:21:03;;;;;;;39.07;12.47;;;1.30;1.00;;;;;;6187779;23;20178;-90
2023/01/19 02:23:41;;;;;;;37.80;11.37;;;1.30;1.00;;;;;;6187718;23;20252;-90
2023/01/19 02:26:10;;;;;;;33.73;11.27;;;1.30;1.00;;;;;;6187566;23;20637;-90
2023/01/19 02:28:40;;;;;;;34.70;11.13;;;1.30;1.00;;;;;;6187656;23;20169;-91
2023/01/19 02:31:06;;;;;;;40.00;12.67;;;1.30;1.00;;;;;;6187521;23;20198;-90
2023/01/19 02:33:33;;;;;;;33.97;11.93;;;1.30;1.00;;;;;;6187516;23;20170;-90
2023/01/19 02:36:01;;;;;;;37.67;12.60;;;1.30;1.00;;;;;;6187658;23;20175;-91
2023/01/19 02:38:29;;;;;;;36.83;12.03;;;1.40;1.00;;;;;;6187447;23;20176;-91
2023/01/19 02:41:01;;;;;;;36.30;12.20;;;1.40;1.00;;;;;;6187263;23;20170;-90
2023/01/19 02:43:29;;;;;;;47.87;13.23;;;1.40;1.00;;;;;;6187162;23;20167;-90
2023/01/19 02:45:56;;;;;;;42.93;12.70;;;1.40;1.00;;;;;;6187296;23;20179;-91
2023/01/19 02:48:23;;;;;;;34.90;13.13;;;1.40;1.00;;;;;;6187082;23;20174;-91
2023/01/19 02:50:52;;;;;;;55.27;13.20;;;1.50;1.00;;;;;;6187618;23;20175;-91
2023/01/19 02:53:56;;;;;;;51.90;13.90;;;1.50;1.00;;;;;;6186672;23;20171;-90
2023/01/19 02:56:42;;;;;;;41.17;13.83;;;1.60;1.00;;;;;;6187599;23;20204;-90
2023/01/19 02:59:15;;;;;;;42.47;14.23;;;1.60;1.00;;;;;;6186982;23;20159;-91
2023/01/19 03:01:58;;;;;;;46.20;14.70;;;1.70;1.00;;;;;;6187512;23;20156;-90
2023/01/19 03:04:30;;;;;;;48.60;13.87;;;1.70;1.00;;;;;;6187306;23;20156;-90
2023/01/19 03:07:03;;;;;;;41.87;14.47;;;1.70;1.00;;;;;;6187207;23;20176;-90
2023/01/19 03:09:37;;;;;;;67.03;17.13;;;1.70;1.00;;;;;;6186851;23;20154;-91
2023/01/19 03:12:14;;;;;;;61.77;16.87;;;1.70;1.00;;;;;;6187139;23;20629;-91
2023/01/19 03:14:45;;;;;;;64.77;16.40;;;1.70;1.00;;;;;;6187013;23;20244;-91
2023/01/19 03:17:14;;;;;;;60.27;14.77;;;1.70;1.00;;;;;;6187324;23;20160;-91
2023/01/19 03:19:43;;;;;;;57.23;16.93;;;1.70;1.00;;;;;;6186691;23;20640;-90
2023/01/19 03:22:15;;;;;;;71.60;17.17;;;1.70;1.00;;;;;;6186694;23;20510;-91
2023/01/19 03:24:44;;;;;;;71.13;16.10;;;1.70;1.00;;;;;;6186987;23;20610;-91
2023/01/19 03:27:17;;;;;;;68.37;16.87;;;1.70;1.00;;;;;;6187210;23;20195;-91
2023/01/19 03:29:50;;;;;;;48.10;15.03;;;1.70;1.00;;;;;;6186909;23;20155;-91
2023/01/19 03:32:20;;;;;;;55.50;16.37;;;1.70;1.00;;;;;;6186978;23;20230;-91
2023/01/19 03:34:50;;;;;;;52.20;16.30;;;1.70;1.00;;;;;;6186703;23;20380;-92
2023/01/19 03:37:19;;;;;;;50.30;15.70;;;1.70;1.00;;;;;;6186738;23;20168;-90
2023/01/19 03:39:46;;;;;;;44.57;14.73;;;1.70;1.00;;;;;;6187019;23;20175;-91
2023/01/19 03:42:16;;;;;;;40.90;14.80;;;1.70;1.00;;;;;;6186783;23;20173;-91
2023/01/19 03:44:45;;;;;;;43.63;15.50;;;1.60;1.00;;;;;;6186624;23;20159;-91
2023/01/19 03:47:14;;;;;;;34.40;13.13;;;1.60;1.00;;;;;;6186533;23;20254;-91
2023/01/19 03:49:43;;;;;;;33.13;13.63;;;1.60;1.00;;;;;;6186595;23;20187;-90
2023/01/19 03:52:11;;;;;;;28.33;12.33;;;1.40;1.00;;;;;;6186012;23;20500;-91
2023/01/19 03:54:38;;;;;;;27.23;12.10;;;1.30;1.00;;;;;;6186837;23;20201;-90
2023/01/19 03:57:04;;;;;;;29.23;12.13;;;1.10;99.90;;;;;;6186677;23;20174;-90
2023/01/19 03:59:33;;;;;;;25.17;11.60;;;0.90;99.90;;;;;;6186488;23;20174;-91
2023/01/19 04:02:00;;;;;;;26.30;11.47;;;0.70;1.00;;;;;;6186810;23;20176;-91
2023/01/19 04:04:26;;;;;;;25.20;11.27;;;0.50;1.00;;;;;;6187229;23;20170;-91
2023/01/19 04:06:53;;;;;;;40.27;12.73;;;0.40;99.90;;;;;;6186730;23;20494;-91
2023/01/19 04:09:20;;;;;;;41.67;12.47;;;0.40;1.00;;;;;;6186539;23;20163;-91
2023/01/19 04:11:47;;;;;;;61.00;13.03;;;0.40;1.00;;;;;;6186459;23;20172;-91
2023/01/19 04:14:13;;;;;;;46.10;12.80;;;0.40;1.00;;;;;;6186457;23;20178;-91
2023/01/19 04:16:41;;;;;;;70.37;13.17;;;0.40;1.00;;;;;;6186615;23;20173;-91
2023/01/19 04:19:08;;;;;;;57.27;12.00;;;0.40;1.00;;;;;;6186625;23;20180;-90
2023/01/19 04:21:35;;;;;;;52.37;11.53;;;0.50;1.00;;;;;;6186149;23;20626;-90
2023/01/19 04:24:02;;;;;;;146.90;14.27;;;0.50;99.90;;;;;;6186337;23;20165;-91
2023/01/19 04:26:29;;;;;;;149.03;14.00;;;0.50;99.90;;;;;;6186296;23;20185;-91
2023/01/19 04:28:55;;;;;;;102.70;13.80;;;0.40;99.90;;;;;;6186750;23;20630;-91
2023/01/19 04:31:23;;;;;;;90.60;13.47;;;0.40;99.90;;;;;;6186979;23;20178;-91
2023/01/19 04:33:51;;;;;;;66.87;13.07;;;0.40;99.90;;;;;;6186799;23;20159;-91
2023/01/19 04:36:18;;;;;;;53.50;12.07;;;0.50;99.90;;;;;;6187154;23;20170;-91
2023/01/19 04:38:45;;;;;;;50.73;12.00;;;0.50;99.90;;;;;;6187388;23;20171;-91
2023/01/19 04:41:12;;;;;;;64.43;13.13;;;0.50;99.90;;;;;;6186471;23;20206;-91
2023/01/19 04:43:39;;;;;;;131.90;13.80;;;0.50;99.90;;;;;;6186242;23;20180;-91
2023/01/19 04:46:06;;;;;;;113.03;13.97;;;0.50;1.00;;;;;;6186040;23;20175;-91
2023/01/19 04:48:33;;;;;;;99.13;12.10;;;0.50;1.00;;;;;;6186427;23;20192;-91
2023/01/19 04:51:01;;;;;;;207.33;13.67;;;0.40;1.00;;;;;;6186539;23;20171;-91
2023/01/19 04:53:28;;;;;;;148.07;11.77;;;0.40;1.00;;;;;;6186207;23;20451;-91
2023/01/19 04:55:55;;;;;;;130.27;12.73;;;0.40;1.00;;;;;;6186536;23;20171;-90
2023/01/19 04:58:22;;;;;;;95.40;11.90;;;0.40;1.00;;;;;;6186124;23;20165;-91
2023/01/19 05:00:50;;;;;;;102.63;11.97;;;0.30;1.00;;;;;;6186125;23;20174;-91
2023/01/19 05:03:18;;;;;;;95.83;11.50;;;0.30;1.00;;;;;;6185994;23;20180;-91
2023/01/19 05:05:44;;;;;;;99.20;18.37;;;0.30;1.00;;;;;;6185938;23;20170;-91
2023/01/19 05:08:12;;;;;;;116.37;13.83;;;0.30;1.00;;;;;;6186180;23;20189;-91
2023/01/19 05:10:39;;;;;;;113.03;13.20;;;0.30;1.00;;;;;;6185857;23;20174;-91
2023/01/19 05:13:06;;;;;;;89.33;12.83;;;0.30;1.00;;;;;;6185858;23;20499;-92
2023/01/19 05:15:33;;;;;;;96.87;13.83;;;0.30;1.00;;;;;;6186424;23;20175;-90
2023/01/19 05:17:59;;;;;;;67.70;14.50;;;0.20;1.00;;;;;;6186199;23;20177;-91
2023/01/19 05:20:26;;;;;;;101.43;15.27;;;0.20;1.00;;;;;;6186159;23;20177;-90
2023/01/19 05:22:53;;;;;;;68.53;17.80;;;0.30;1.00;;;;;;6185991;23;20182;-90
2023/01/19 05:25:21;;;;;;;62.57;16.63;;;0.20;1.00;;;;;;6185639;23;20500;-91
2023/01/19 05:27:48;;;;;;;88.43;14.30;;;0.20;1.00;;;;;;6185905;23;20190;-91
2023/01/19 05:30:16;;;;;;;51.93;15.17;;;0.30;1.00;;;;;;6186030;23;20176;-91
2023/01/19 05:32:43;;;;;;;46.63;15.30;;;0.20;1.00;;;;;;6185713;23;20199;-91
2023/01/19 05:35:11;;;;;;;36.97;14.17;;;0.30;1.00;;;;;;6186215;23;20175;-90
2023/01/19 05:37:38;;;;;;;50.30;13.53;;;0.30;1.00;;;;;;6185585;23;20184;-91
2023/01/19 05:40:06;;;;;;;42.00;15.17;;;0.30;1.00;;;;;;6185206;23;20256;-90
2023/01/19 05:42:35;;;;;;;53.97;16.63;;;0.20;1.00;;;;;;6185744;23;20169;-91
2023/01/19 05:45:02;;;;;;;56.97;20.67;;;0.20;1.00;;;;;;6185484;23;20176;-91
2023/01/19 05:47:30;;;;;;;48.93;15.23;;;0.20;1.00;;;;;;6186046;23;20199;-90
2023/01/19 05:49:57;;;;;;;62.87;11.70;;;0.20;1.00;;;;;;6186366;23;20178;-91
2023/01/19 05:52:24;;;;;;;82.40;12.40;;;0.20;1.00;;;;;;6186439;23;20169;-90
2023/01/19 05:54:53;;;;;;;90.70;14.43;;;0.10;99.90;;;;;;6186210;23;20554;-91
2023/01/19 05:57:20;;;;;;;81.97;14.17;;;0.10;1.00;;;;;;6186258;23;20208;-90
2023/01/19 05:59:48;;;;;;;45.07;13.43;;;0.10;1.00;;;;;;6186034;23;20628;-91
2023/01/19 06:02:15;;;;;;;58.50;13.33;;;0.10;1.00;;;;;;6186208;23;20169;-91
2023/01/19 06:04:42;;;;;;;86.97;19.10;;;0.10;1.00;;;;;;6186397;23;20170;-90
2023/01/19 06:07:09;;;;;;;101.30;16.63;;;0.10;1.00;;;;;;6186086;23;20195;-91
2023/01/19 06:09:35;;;;;;;91.77;16.33;;;0.10;1.00;;;;;;6185561;23;20171;-90
2023/01/19 06:12:02;;;;;;;76.83;12.43;;;0.20;1.00;;;;;;6185931;23;20257;-90
2023/01/19 06:14:29;;;;;;;137.30;15.60;;;0.20;1.00;;;;;;6185816;23;20178;-90
2023/01/19 06:16:57;;;;;;;48.73;11.97;;;0.10;1.00;;;;;;6186392;23;20174;-91
2023/01/19 06:19:24;;;;;;;46.90;11.30;;;0.10;99.90;;;;;;6187819;23;20174;-90
2023/01/19 06:21:51;;;;;;;67.17;12.87;;;0.00;99.90;;;;;;6189232;23;20909;-90
2023/01/19 06:24:18;;;;;;;75.63;12.83;;;-0.10;99.90;;;;;;6188034;23;20174;-92
2023/01/19 06:26:45;;;;;;;38.90;11.53;;;-0.10;99.90;;;;;;6187897;23;20173;-93
2023/01/19 06:29:13;;;;;;;66.63;11.80;;;-0.20;99.90;;;;;;6188240;23;20196;-92
2023/01/19 06:31:40;;;;;;;55.27;12.17;;;-0.30;99.90;;;;;;6188134;23;20198;-92
2023/01/19 06:34:08;;;;;;;65.27;11.10;;;-0.40;99.90;;;;;;6188381;23;20169;-92
2023/01/19 06:36:35;;;;;;;73.30;15.07;;;-0.40;1.00;;;;;;6188114;23;20475;-92
2023/01/19 06:39:04;;;;;;;47.93;15.00;;;-0.40;1.00;;;;;;6188358;23;20257;-93
2023/01/19 06:41:31;;;;;;;78.13;23.13;;;-0.40;1.00;;;;;;6188255;23;20177;-92
2023/01/19 06:43:58;;;;;;;56.23;14.70;;;-0.40;1.00;;;;;;6188342;23;20173;-92
2023/01/19 06:46:26;;;;;;;70.37;16.17;;;-0.40;1.00;;;;;;6187985;23;20181;-92
2023/01/19 06:48:53;;;;;;;41.23;15.27;;;-0.40;1.00;;;;;;6188095;23;20240;-92
2023/01/19 06:51:22;;;;;;;42.27;14.70;;;-0.40;1.00;;;;;;6188193;23;20173;-94
2023/01/19 06:53:49;;;;;;;47.47;15.17;;;-0.30;1.00;;;;;;6187807;23;20184;-92
2023/01/19 06:56:16;;;;;;;40.70;13.90;;;-0.30;1.00;;;;;;6188011;23;20628;-92
2023/01/19 06:58:43;;;;;;;42.57;15.53;;;-0.30;1.00;;;;;;6188034;23;20171;-91
2023/01/19 07:01:10;;;;;;;42.60;15.70;;;-0.30;1.00;;;;;;6187802;23;20166;-92
2023/01/19 07:03:37;;;;;;;46.00;17.93;;;-0.20;1.00;;;;;;6188125;23;20171;-92
2023/01/19 07:06:05;;;;;;;46.13;15.90;;;-0.20;1.00;;;;;;6187300;23;20176;-92
2023/01/19 07:08:34;;;;;;;40.73;15.87;;;-0.20;1.00;;;;;;6187704;23;20186;-91
2023/01/19 07:11:01;;;;;;;45.47;13.93;;;-0.20;1.00;;;;;;6187849;23;20173;-92
2023/01/19 07:13:28;;;;;;;45.23;16.30;;;-0.20;99.90;;;;;;6187616;23;20661;-92
2023/01/19 07:15:55;;;;;;;30.77;11.93;;;-0.30;99.90;;;;;;6187945;23;20169;-93
2023/01/19 07:18:22;;;;;;;37.87;14.00;;;-0.30;99.90;;;;;;6188101;23;20165;-91
2023/01/19 07:20:48;;;;;;;39.27;14.27;;;-0.30;1.00;;;;;;6187227;23;20181;-93
2023/01/19 07:23:15;;;;;;;42.17;14.77;;;-0.30;1.00;;;;;;6188140;23;20170;-91
2023/01/19 07:25:46;;;;;;;40.17;19.03;;;-0.30;1.00;;;;;;6187590;23;20647;-93
2023/01/19 07:28:14;;;;;;;44.40;21.90;;;-0.30;1.00;;;;;;6187223;23;20624;-92
2023/01/19 07:30:42;;;;;;;34.73;15.93;;;-0.20;1.00;;;;;;6187974;23;20173;-91
2023/01/19 07:33:09;;;;;;;34.83;16.17;;;-0.20;1.00;;;;;;6186160;23;20224;-92
2023/01/19 07:35:36;;;;;;;34.17;15.50;;;-0.10;1.00;;;;;;6185884;23;20169;-92
2023/01/19 07:38:02;;;;;;;31.87;12.97;;;-0.10;1.00;;;;;;6185503;23;20163;-93
2023/01/19 07:40:29;;;;;;;39.37;14.63;;;-0.10;99.90;;;;;;6183614;23;20629;-91
2023/01/19 07:42:57;;;;;;;40.93;16.63;;;-0.10;1.00;;;;;;6186008;23;20489;-92
2023/01/19 07:45:26;;;;;;;28.37;12.90;;;0.00;1.00;;;;;;6186298;23;20234;-92
2023/01/19 07:47:53;;;;;;;25.70;12.20;;;0.00;99.90;;;;;;6184873;23;20190;-92
2023/01/19 07:50:23;;;;;;;31.27;14.47;;;0.00;99.90;;;;;;6184413;23;20176;-92
2023/01/19 07:52:52;;;;;;;29.27;12.90;;;0.00;99.90;;;;;;6185198;23;20241;-93
2023/01/19 07:55:19;;;;;;;35.27;15.30;;;0.00;99.90;;;;;;6185000;23;20228;-91
2023/01/19 07:57:49;;;;;;;28.97;13.30;;;0.00;99.90;;;;;;6185327;23;20498;-93
2023/01/19 08:00:20;;;;;;;33.37;15.13;;;0.00;99.90;;;;;;6185069;23;20186;-92
2023/01/19 08:02:48;;;;;;;35.90;15.40;;;0.10;99.90;;;;;;6184272;23;20624;-92
2023/01/19 08:05:16;;;;;;;46.60;24.97;;;0.10;99.90;;;;;;6184870;23;20176;-93
2023/01/19 08:07:43;;;;;;;61.43;28.13;;;0.10;99.90;;;;;;6184868;23;20194;-93
2023/01/19 08:10:11;;;;;;;26.07;16.90;;;0.30;99.90;;;;;;6185210;23;20170;-93
2023/01/19 08:12:39;;;;;;;29.90;14.47;;;0.30;99.90;;;;;;6185324;23;20180;-93
2023/01/19 08:15:07;;;;;;;27.00;12.53;;;0.30;9.30;;;;;;6184983;23;20172;-91
2023/01/19 08:17:35;;;;;;;25.90;13.23;;;0.40;99.90;;;;;;6184873;23;20229;-92
2023/01/19 08:20:02;;;;;;;23.17;12.90;;;0.40;99.90;;;;;;5983314;23;4820092;-95
2023/01/19 08:25:07;;;;;;;27.87;14.20;;;0.60;1.00;;;;;;6160556;23;20157;-94
2023/01/19 08:27:40;;;;;;;20.70;10.53;;;0.60;1.00;;;;;;6222079;23;20193;-95
2023/01/19 08:30:13;;;;;;;20.80;10.33;;;0.60;99.90;;;;;;6239950;23;20205;-96
2023/01/19 08:32:41;;;;;;;19.30;10.83;;;0.60;99.90;;;;;;6224529;23;20241;-94
2023/01/19 08:35:11;;;;;;;22.50;12.93;;;0.60;99.90;;;;;;6222722;23;20205;-95
2023/01/19 08:37:38;;;;;;;24.00;12.00;;;0.50;99.90;;;;;;6223785;23;20177;-95
2023/01/19 08:40:25;;;;;;;34.07;16.70;;;0.50;99.90;;;;;;6234137;23;20184;-96
2023/01/19 08:42:52;;;;;;;29.10;15.40;;;0.50;99.90;;;;;;6216591;23;20254;-93
2023/01/19 08:45:19;;;;;;;27.37;15.07;;;0.60;1.00;;;;;;6216213;23;20518;-95
2023/01/19 08:47:47;;;;;;;28.73;15.17;;;0.70;1.00;;;;;;6216169;23;20256;-95
2023/01/19 08:50:14;;;;;;;26.43;12.90;;;0.70;1.00;;;;;;6216293;23;20204;-93
2023/01/19 08:52:41;;;;;;;22.83;12.83;;;0.90;1.00;;;;;;6216392;23;20626;-94
2023/01/19 08:55:10;;;;;;;31.70;14.00;;;1.00;1.00;;;;;;6216058;23;20169;-93
2023/01/19 08:57:36;;;;;;;26.27;12.97;;;1.00;99.90;;;;;;6216375;23;20178;-92
2023/01/19 09:00:06;;;;;;;23.90;12.50;;;1.10;99.90;;;;;;6215763;23;20169;-92
2023/01/19 09:02:33;;;;;;;28.23;13.90;;;1.20;93.20;;;;;;6216065;23;20178;-94
2023/01/19 09:05:03;;;;;;;33.17;15.50;;;1.30;1.00;;;;;;6216489;23;20170;-92
2023/01/19 09:07:30;;;;;;;26.87;13.17;;;1.30;1.00;;;;;;6216499;23;20169;-94
2023/01/19 09:09:57;;;;;;;27.87;14.73;;;1.30;65.00;;;;;;6215868;23;20213;-94
2023/01/19 09:12:23;;;;;;;34.40;16.53;;;1.40;63.20;;;;;;6216078;23;20172;-92
2023/01/19 09:14:50;;;;;;;33.73;15.83;;;1.60;1.00;;;;;;6215594;23;20183;-93
2023/01/19 09:17:17;;;;;;;22.37;12.50;;;1.70;1.00;;;;;;6215524;23;20174;-93
2023/01/19 09:19:44;;;;;;;29.87;13.67;;;1.70;99.90;;;;;;6215724;23;20171;-92
2023/01/19 09:22:12;;;;;;;34.43;16.87;;;1.60;99.90;;;;;;6215656;23;20174;-95
2023/01/19 09:24:38;;;;;;;35.80;20.07;;;1.60;99.90;;;;;;6216251;23;20175;-93
2023/01/19 09:27:05;;;;;;;39.73;20.47;;;1.70;1.00;;;;;;6216083;23;20170;-95
2023/01/19 09:29:32;;;;;;;37.90;18.90;;;1.80;99.90;;;;;;6215730;23;20199;-93
2023/01/19 09:31:59;;;;;;;37.47;20.63;;;1.90;99.90;;;;;;6215806;23;20175;-93
2023/01/19 09:34:26;;;;;;;46.97;26.47;;;1.90;99.90;;;;;;6216180;23;20175;-93
2023/01/19 09:36:52;;;;;;;29.60;16.13;;;1.80;99.90;;;;;;6216317;23;20626;-94
2023/01/19 09:39:20;;;;;;;35.10;19.70;;;1.80;99.90;;;;;;6216164;23;20629;-93
2023/01/19 09:41:54;;;;;;;45.93;25.30;;;1.80;19.50;;;;;;6216101;23;20169;-94
2023/01/19 09:44:29;;;;;;;44.23;21.80;;;1.70;99.90;;;;;;6216003;23;20488;-94
2023/01/19 09:46:56;;;;;;;44.43;22.37;;;1.80;99.90;;;;;;6215679;23;20159;-93
2023/01/19 09:49:30;;;;;;;41.43;23.87;;;1.80;99.90;;;;;;6216923;23;20196;-93
2023/01/19 09:51:58;;;;;;;42.13;26.13;;;1.80;99.90;;;;;;6217576;23;20162;-93
2023/01/19 09:54:32;;;;;;;32.73;17.93;;;1.90;17.60;;;;;;6218740;23;20171;-94
2023/01/19 09:56:59;;;;;;;41.83;26.63;;;1.90;99.90;;;;;;6219265;23;20156;-93
2023/01/19 09:59:29;;;;;;;80.57;47.40;;;2.00;1.00;;;;;;6219039;23;20171;-93
2023/01/19 10:02:06;;;;;;;40.47;26.90;;;2.00;1.00;;;;;;6218950;23;20170;-93
2023/01/19 10:04:39;;;;;;;23.50;13.40;;;2.10;1.00;;;;;;6218896;23;20165;-92
2023/01/19 10:07:13;;;;;;;30.87;14.93;;;2.10;99.90;;;;;;6218213;23;20153;-95
2023/01/19 10:10:02;;;;;;;50.63;25.17;;;2.00;99.90;;;;;;6219076;23;20181;-92
2023/01/19 10:12:38;;;;;;;37.97;21.07;;;1.90;1.00;;;;;;6219493;23;20156;-93
2023/01/19 10:15:21;;;;;;;32.90;18.40;;;2.00;1.00;;;;;;6219033;23;20210;-93
2023/01/19 10:18:00;;;;;;;35.23;18.80;;;2.10;1.00;;;;;;6219287;23;20162;-94
2023/01/19 10:20:32;;;;;;;30.97;18.93;;;2.10;1.00;;;;;;6219173;23;20156;-95
2023/01/19 10:23:00;;;;;;;75.10;30.97;;;2.10;99.90;;;;;;6219058;23;20226;-93
2023/01/19 10:25:29;;;;;;;134.67;49.03;;;2.10;1.00;;;;;;6218940;23;20169;-94
2023/01/19 10:27:56;;;;;;;58.93;27.23;;;2.20;1.00;;;;;;6219452;23;20171;-94
2023/01/19 10:30:26;;;;;;;45.77;22.43;;;2.20;1.00;;;;;;6218598;23;20198;-94
2023/01/19 10:32:53;;;;;;;81.27;31.53;;;2.20;1.00;;;;;;6218732;23;20717;-94
2023/01/19 10:35:23;;;;;;;52.23;23.57;;;2.20;1.00;;;;;;6218846;23;20172;-93
2023/01/19 10:37:51;;;;;;;39.93;18.27;;;2.30;99.90;;;;;;6218678;23;20210;-94
2023/01/19 10:40:27;;;;;;;60.20;23.20;;;2.40;1.00;;;;;;6218853;23;20168;-93
2023/01/19 10:42:56;;;;;;;54.83;22.80;;;2.40;99.90;;;;;;6218802;23;20211;-93
2023/01/19 10:45:25;;;;;;;64.67;27.03;;;2.40;1.00;;;;;;6219585;23;20172;-93
2023/01/19 10:47:54;;;;;;;55.83;27.63;;;2.50;1.00;;;;;;6218675;23;20258;-94
2023/01/19 10:50:26;;;;;;;50.27;23.07;;;2.50;1.00;;;;;;6223206;23;20191;-95
2023/01/19 10:52:55;;;;;;;47.87;24.90;;;2.50;8.90;;;;;;6220724;23;20633;-94
2023/01/19 10:55:28;;;;;;;31.67;18.30;;;2.50;1.00;;;;;;6222564;23;20244;-94
2023/01/19 10:57:57;;;;;;;19.33;12.57;;;2.40;1.00;;;;;;6218356;23;20169;-93
2023/01/19 11:00:33;;;;;;;31.87;16.90;;;2.40;99.90;;;;;;6218507;23;20222;-92
2023/01/19 11:03:00;;;;;;;43.90;21.57;;;2.30;1.00;;;;;;6217782;23;20225;-93
2023/01/19 11:05:29;;;;;;;44.13;20.67;;;2.30;1.00;;;;;;6217850;23;20173;-92
2023/01/19 11:07:56;;;;;;;28.27;15.77;;;2.40;1.00;;;;;;6218301;23;20501;-91
2023/01/19 11:10:24;;;;;;;47.63;23.63;;;2.50;1.00;;;;;;6217829;23;20193;-93
2023/01/19 11:13:00;;;;;;;24.13;15.17;;;2.40;1.00;;;;;;6218076;23;20173;-92
2023/01/19 11:15:31;;;;;;;22.43;12.57;;;2.40;99.90;;;;;;6218298;23;20217;-91
2023/01/19 11:17:58;;;;;;;21.33;12.60;;;2.30;1.00;;;;;;6218086;23;20163;-91
2023/01/19 11:20:29;;;;;;;37.50;19.50;;;2.20;99.90;;;;;;6217842;23;20169;-91
2023/01/19 11:23:05;;;;;;;38.70;18.73;;;2.30;99.90;;;;;;6218375;23;20155;-91
2023/01/19 11:25:34;;;;;;;34.83;20.20;;;2.30;1.00;;;;;;6217645;23;20652;-91
2023/01/19 11:28:03;;;;;;;43.57;21.13;;;2.30;99.90;;;;;;6217135;23;20630;-90
2023/01/19 11:30:30;;;;;;;31.30;17.00;;;2.40;99.90;;;;;;6217820;23;20196;-91
2023/01/19 11:32:57;;;;;;;34.30;17.23;;;2.40;99.90;;;;;;6218213;23;20225;-91
2023/01/19 11:35:36;;;;;;;47.83;21.93;;;2.40;99.90;;;;;;6218062;23;20499;-92
2023/01/19 11:38:22;;;;;;;42.53;20.13;;;2.40;99.90;;;;;;6218285;23;20166;-91
2023/01/19 11:40:54;;;;;;;47.67;22.50;;;2.40;51.50;;;;;;6217990;23;20192;-91
2023/01/19 11:43:24;;;;;;;42.70;21.80;;;2.30;1.00;;;;;;6217429;23;20214;-92
2023/01/19 11:45:51;;;;;;;27.23;16.83;;;2.20;83.30;;;;;;6218143;23;20175;-92
2023/01/19 11:48:25;;;;;;;42.70;22.83;;;2.30;99.90;;;;;;6217893;23;20178;-94
2023/01/19 11:50:52;;;;;;;46.60;29.03;;;2.20;1.00;;;;;;6187527;23;20182;-91
2023/01/19 11:53:23;;;;;;;36.67;20.70;;;2.00;1.00;;;;;;6187360;23;20631;-91
2023/01/19 11:55:55;;;;;;;49.17;24.27;;;1.70;1.00;;;;;;6187651;23;20215;-92
2023/01/19 11:58:25;;;;;;;41.70;21.50;;;1.70;99.90;;;;;;6187857;23;20160;-94
2023/01/19 12:00:55;;;;;;;23.97;14.90;;;1.60;99.90;;;;;;6187718;23;20168;-92
2023/01/19 12:03:25;;;;;;;36.70;21.20;;;1.60;1.00;;;;;;6187782;23;20521;-90
2023/01/19 12:05:55;;;;;;;55.73;27.30;;;1.60;1.00;;;;;;6187560;23;20155;-93
2023/01/19 12:08:26;;;;;;;69.47;28.80;;;1.80;1.00;;;;;;6187557;23;20170;-91
2023/01/19 12:10:55;;;;;;;67.57;29.20;;;2.00;1.00;;;;;;6187450;23;20178;-92
2023/01/19 12:13:25;;;;;;;64.77;26.57;;;2.10;1.00;;;;;;6187291;23;20172;-92
2023/01/19 12:15:57;;;;;;;58.63;27.57;;;2.30;1.00;;;;;;6186366;23;20647;-90
2023/01/19 12:18:28;;;;;;;52.57;25.73;;;2.30;99.90;;;;;;6187673;23;20212;-92
2023/01/19 12:20:57;;;;;;;74.30;32.97;;;2.40;99.90;;;;;;6187284;23;20152;-92
2023/01/19 12:23:43;;;;;;;123.50;42.83;;;2.50;99.90;;;;;;6187166;23;20211;-93
2023/01/19 12:26:28;;;;;;;114.97;37.90;;;2.50;68.50;;;;;;6187094;23;20625;-92
2023/01/19 12:29:00;;;;;;;109.40;39.60;;;2.60;99.90;;;;;;6186830;23;20189;-91
2023/01/19 12:31:27;;;;;;;150.13;50.90;;;2.70;1.00;;;;;;6187488;23;20160;-92
2023/01/19 12:33:54;;;;;;;181.83;58.30;;;2.70;1.00;;;;;;6186890;23;20640;-91
2023/01/19 12:36:37;;;;;;;43.83;23.40;;;2.70;1.00;;;;;;6187127;23;20169;-92
2023/01/19 12:39:06;;;;;;;66.90;31.70;;;2.70;1.00;;;;;;6186311;23;20177;-92
2023/01/19 12:41:35;;;;;;;64.07;31.93;;;2.80;1.00;;;;;;6187391;23;20222;-90
2023/01/19 12:44:33;;;;;;;55.73;27.27;;;2.80;1.00;;;;;;6187301;23;20178;-90
2023/01/19 12:47:18;;;;;;;45.97;27.10;;;2.80;1.00;;;;;;6187098;23;20600;-91
2023/01/19 12:49:48;;;;;;;73.63;37.70;;;2.90;1.00;;;;;;6187093;23;20265;-92
2023/01/19 12:52:26;;;;;;;46.03;26.10;;;2.90;1.00;;;;;;6187254;23;20179;-92
2023/01/19 12:55:17;;;;;;;48.07;25.53;;;3.00;1.00;;;;;;6187802;23;20165;-92
2023/01/19 12:57:58;;;;;;;48.87;25.70;;;2.90;1.00;;;;;;6187697;23;20154;-92
2023/01/19 13:00:35;;;;;;;47.87;24.57;;;3.00;1.00;;;;;;6187584;23;20153;-93